KRHV

Reid-Hillview of Santa Clara County Airport

San Jose, California, USA
METAR KRHV 110254Z 00000KT 10SM SCT030 10/09 A3015
Observed Flight Rules
Dec-11 @ 02:54 UTC (11 minutes ago) Visual Flight Rules
Visibility Clouds
10 miles
  • Scattered at 3,000' AGL
Temperatures Readings
Current 10°C / 50°F
Dewpoint 9°C / 48°F
Humidity 94%
Altimeter 30.15" Hg
Pressure 1021 hPa
Elevation 41
METAR KRHV 110254Z 00000KT 10SM SCT030 10/09 A3015
Observed Flight Rules
Dec-11 @ 02:54 UTC
(11 minutes ago)
VFR
Clouds
  • Scattered at 3,000' AGL
Temperature Dewpoint
10°C / 50°F 9°C / 48°F
Humidity Altimeter Pressure
94% 30.15" Hg 1021 hPa